createdAt,value
2017-09-28T00:01:09.138Z,14.44
2017-09-28T00:03:38.209Z,14.41
2017-09-28T00:06:06.517Z,14.38
2017-09-28T00:08:35.593Z,14.35
2017-09-28T00:11:03.893Z,14.28
2017-09-28T00:13:32.302Z,14.23
2017-09-28T00:16:00.640Z,14.10
2017-09-28T00:18:29.716Z,14.04
2017-09-28T00:20:58.056Z,13.92
2017-09-28T00:23:26.369Z,13.89
2017-09-28T00:25:54.709Z,13.83
2017-09-28T00:28:23.012Z,13.81
2017-09-28T00:30:51.363Z,13.81
2017-09-28T00:33:19.672Z,13.80
2017-09-28T00:35:48.753Z,13.70
2017-09-28T00:38:17.068Z,13.69
2017-09-28T00:40:45.377Z,13.62
2017-09-28T00:43:13.769Z,13.65
2017-09-28T00:45:42.097Z,13.75
2017-09-28T00:48:11.192Z,13.87
2017-09-28T00:50:39.519Z,13.94
2017-09-28T00:53:07.834Z,13.91
2017-09-28T00:55:36.141Z,13.82
2017-09-28T00:58:05.221Z,13.71
2017-09-28T01:00:33.525Z,13.63
2017-09-28T01:03:02.614Z,13.60
2017-09-28T01:05:30.930Z,13.61
2017-09-28T01:07:59.225Z,13.53
2017-09-28T01:10:27.533Z,13.57
2017-09-28T01:12:56.614Z,13.51
2017-09-28T01:15:24.951Z,13.45
2017-09-28T01:17:53.265Z,13.42
2017-09-28T01:20:21.573Z,13.38
2017-09-28T01:22:50.653Z,13.36
2017-09-28T01:25:18.962Z,13.36
2017-09-28T01:27:47.293Z,13.38
2017-09-28T01:30:15.602Z,13.44
2017-09-28T01:32:44.674Z,13.46
2017-09-28T01:35:12.991Z,13.46
2017-09-28T01:37:41.302Z,13.46
2017-09-28T01:40:09.632Z,13.55
2017-09-28T01:42:38.697Z,13.61
2017-09-28T01:45:07.010Z,13.63
2017-09-28T01:47:35.317Z,13.67
2017-09-28T01:50:03.626Z,13.71
2017-09-28T01:52:31.965Z,13.75
2017-09-28T01:55:00.268Z,13.77
2017-09-28T01:57:28.584Z,13.77
2017-09-28T01:59:57.663Z,13.79
2017-09-28T02:02:26.750Z,13.77
2017-09-28T02:04:55.105Z,13.72
2017-09-28T02:07:23.410Z,13.67
2017-09-28T02:09:51.733Z,13.62
2017-09-28T02:12:20.050Z,13.60
2017-09-28T02:14:48.353Z,13.58
2017-09-28T02:17:17.448Z,13.58
2017-09-28T02:19:46.516Z,13.55
2017-09-28T02:22:14.822Z,13.58
2017-09-28T02:24:43.893Z,13.58
2017-09-28T02:27:12.193Z,13.65
2017-09-28T02:29:41.305Z,13.66
2017-09-28T02:32:09.627Z,13.73
2017-09-28T02:34:37.957Z,13.73
2017-09-28T02:37:07.039Z,13.74
2017-09-28T02:39:36.115Z,13.71
2017-09-28T02:42:04.440Z,13.70
2017-09-28T02:44:32.759Z,13.73
2017-09-28T02:47:01.834Z,13.64
2017-09-28T02:49:30.159Z,13.61
2017-09-28T02:51:59.241Z,13.57
2017-09-28T02:54:27.601Z,13.47
2017-09-28T02:56:55.922Z,13.45
2017-09-28T02:59:25.001Z,13.43
2017-09-28T03:01:53.329Z,13.36
2017-09-28T03:04:21.629Z,13.36
2017-09-28T03:06:49.951Z,13.34
2017-09-28T03:09:18.265Z,13.35
2017-09-28T03:11:46.578Z,13.33
2017-09-28T03:14:14.902Z,13.28
2017-09-28T03:16:43.200Z,13.23
2017-09-28T03:19:11.533Z,13.26
2017-09-28T03:21:40.613Z,13.29
2017-09-28T03:24:08.922Z,13.37
2017-09-28T03:26:37.267Z,13.47
2017-09-28T03:29:05.580Z,13.51
2017-09-28T03:31:33.926Z,13.63
2017-09-28T03:34:02.244Z,13.61
2017-09-28T03:36:30.559Z,13.63
2017-09-28T03:38:58.893Z,13.71
2017-09-28T03:41:27.204Z,13.77
2017-09-28T03:43:55.546Z,13.90
2017-09-28T03:46:23.850Z,14.02
2017-09-28T03:48:52.193Z,14.13
2017-09-28T03:51:20.523Z,14.10
2017-09-28T03:53:48.847Z,14.24
2017-09-28T03:56:17.244Z,14.21
2017-09-28T03:58:45.568Z,14.36
2017-09-28T04:01:13.892Z,14.31
2017-09-28T04:03:42.230Z,14.35
2017-09-28T04:06:10.545Z,14.33
2017-09-28T04:08:38.902Z,14.33
2017-09-28T04:11:07.980Z,14.31
2017-09-28T04:13:36.295Z,14.37
2017-09-28T04:16:04.627Z,14.41
2017-09-28T04:18:32.942Z,14.46
2017-09-28T04:21:01.287Z,14.41
2017-09-28T04:23:29.599Z,14.36
2017-09-28T04:25:57.919Z,14.38
2017-09-28T04:28:26.230Z,14.34
2017-09-28T04:30:54.552Z,14.29
2017-09-28T04:33:22.923Z,14.30
2017-09-28T04:35:51.291Z,14.38
2017-09-28T04:38:19.648Z,14.37
2017-09-28T04:40:48.812Z,14.38
2017-09-28T04:43:17.192Z,14.43
2017-09-28T04:45:45.538Z,14.44
2017-09-28T04:48:13.857Z,14.43
2017-09-28T04:50:42.171Z,14.43
2017-09-28T04:53:10.511Z,14.51
2017-09-28T04:55:38.821Z,14.43
2017-09-28T04:58:07.184Z,14.48
2017-09-28T05:00:36.257Z,14.51
2017-09-28T05:03:04.574Z,14.58
2017-09-28T05:05:33.663Z,14.59
2017-09-28T05:08:02.749Z,14.60
2017-09-28T05:10:31.082Z,14.61
2017-09-28T05:12:59.837Z,14.62
2017-09-28T05:15:28.146Z,14.54
2017-09-28T05:17:56.466Z,14.51
2017-09-28T05:20:24.799Z,14.49
2017-09-28T05:22:53.138Z,14.59
2017-09-28T05:25:22.212Z,14.63
2017-09-28T05:27:50.522Z,14.69
2017-09-28T05:30:18.851Z,14.60
2017-09-28T05:32:47.159Z,14.70
2017-09-28T05:35:16.258Z,14.60
2017-09-28T05:37:45.335Z,14.64
2017-09-28T05:40:13.683Z,14.70
2017-09-28T05:42:41.993Z,14.66
2017-09-28T05:45:10.318Z,14.55
2017-09-28T05:47:38.641Z,14.53
2017-09-28T05:50:06.954Z,14.54
2017-09-28T05:52:35.274Z,14.57
2017-09-28T05:55:03.586Z,14.54
2017-09-28T05:57:32.693Z,14.58
2017-09-28T06:00:01.780Z,14.55
2017-09-28T06:02:30.865Z,14.57
2017-09-28T06:04:59.190Z,14.59
2017-09-28T06:07:27.499Z,14.43
2017-09-28T06:09:55.839Z,14.47
2017-09-28T06:12:24.154Z,14.42
2017-09-28T06:14:52.473Z,14.48
2017-09-28T06:17:21.554Z,14.52
2017-09-28T06:19:50.669Z,14.51
2017-09-28T06:22:18.978Z,14.40
2017-09-28T06:24:47.297Z,14.46
2017-09-28T06:27:15.621Z,14.44
2017-09-28T06:29:43.927Z,14.55
2017-09-28T06:32:12.241Z,14.62
2017-09-28T06:34:41.323Z,14.52
2017-09-28T06:37:10.459Z,14.52
2017-09-28T06:39:38.783Z,14.61
2017-09-28T06:42:07.131Z,14.49
2017-09-28T06:44:35.445Z,14.48
2017-09-28T06:47:03.753Z,14.39
2017-09-28T06:49:32.838Z,14.54
2017-09-28T06:52:01.912Z,14.52
2017-09-28T06:54:30.235Z,14.63
2017-09-28T06:56:58.546Z,14.60
2017-09-28T06:59:26.864Z,14.57
2017-09-28T07:01:55.933Z,14.71
2017-09-28T07:04:24.281Z,14.74
2017-09-28T07:06:52.602Z,14.91
2017-09-28T07:09:20.919Z,14.69
2017-09-28T07:11:49.259Z,14.89
2017-09-28T07:14:17.584Z,14.93
2017-09-28T07:16:45.915Z,14.85
2017-09-28T07:19:14.265Z,14.93
2017-09-28T07:21:42.584Z,14.96
2017-09-28T07:24:11.670Z,15.22
2017-09-28T07:26:40.788Z,15.07
2017-09-28T07:29:09.101Z,15.20
2017-09-28T07:31:37.413Z,15.30
2017-09-28T07:34:05.737Z,15.32
2017-09-28T07:36:34.063Z,15.40
2017-09-28T07:39:02.382Z,15.21
2017-09-28T07:41:30.697Z,15.16
2017-09-28T07:43:59.022Z,15.30
2017-09-28T07:46:28.106Z,15.65
2017-09-28T07:48:57.209Z,15.62
2017-09-28T07:51:26.286Z,15.88
2017-09-28T07:53:54.606Z,15.88
2017-09-28T07:56:22.933Z,15.86
2017-09-28T07:58:51.248Z,15.82
2017-09-28T08:01:19.583Z,15.83
2017-09-28T08:03:47.897Z,16.16
2017-09-28T08:06:17.002Z,16.10
2017-09-28T08:08:45.342Z,15.75
2017-09-28T08:11:13.653Z,15.73
2017-09-28T08:13:41.969Z,15.61
2017-09-28T08:16:10.278Z,15.74
2017-09-28T08:18:38.605Z,15.81
2017-09-28T08:21:06.921Z,15.79
2017-09-28T08:23:35.266Z,15.76
2017-09-28T08:26:03.576Z,15.73
2017-09-28T08:28:31.896Z,15.74
2017-09-28T08:31:00.231Z,15.96
2017-09-28T08:33:28.549Z,15.98
2017-09-28T08:35:56.874Z,16.02
2017-09-28T08:38:25.190Z,15.96
2017-09-28T08:40:54.309Z,15.81
2017-09-28T08:43:22.617Z,15.76
2017-09-28T08:45:50.941Z,15.56
2017-09-28T08:48:20.040Z,15.87
2017-09-28T08:50:49.122Z,15.72
2017-09-28T08:53:17.449Z,15.78
2017-09-28T08:55:45.753Z,16.00
2017-09-28T08:58:14.098Z,15.98
2017-09-28T09:00:42.408Z,16.04
2017-09-28T09:03:10.729Z,16.00
2017-09-28T09:05:39.050Z,15.89
2017-09-28T09:08:07.362Z,15.80
2017-09-28T09:10:35.683Z,15.86
2017-09-28T09:13:03.999Z,15.72
2017-09-28T09:15:32.349Z,15.84
2017-09-28T09:18:00.667Z,15.93
2017-09-28T09:20:28.992Z,16.09
2017-09-28T09:22:57.331Z,16.03
2017-09-28T09:25:25.647Z,15.93
2017-09-28T09:27:53.974Z,15.96
2017-09-28T09:30:22.308Z,15.99
2017-09-28T09:32:50.663Z,15.96
2017-09-28T09:35:18.975Z,16.13
2017-09-28T09:37:47.285Z,16.11
2017-09-28T09:40:15.615Z,16.05
2017-09-28T09:42:43.925Z,16.04
2017-09-28T09:45:12.251Z,16.00
2017-09-28T09:47:40.579Z,16.08
2017-09-28T09:50:08.906Z,16.14
2017-09-28T09:52:37.230Z,16.13
2017-09-28T09:55:05.585Z,16.08
2017-09-28T09:57:33.897Z,16.10
2017-09-28T10:00:02.210Z,16.16
2017-09-28T10:02:30.546Z,16.16
2017-09-28T10:04:58.862Z,16.35
2017-09-28T10:07:45.278Z,16.59
2017-09-28T10:10:18.287Z,16.73
2017-09-28T10:12:52.309Z,16.80
2017-09-28T10:15:31.081Z,16.91
2017-09-28T10:18:00.171Z,16.77
2017-09-28T10:20:29.254Z,16.41
2017-09-28T10:22:57.603Z,16.30
2017-09-28T10:25:25.914Z,16.43
2017-09-28T10:27:54.217Z,16.30
2017-09-28T10:30:22.539Z,16.56
2017-09-28T10:32:50.849Z,16.64
2017-09-28T10:35:19.181Z,16.45
2017-09-28T10:37:47.495Z,16.57
2017-09-28T10:40:15.840Z,16.70
2017-09-28T10:42:44.171Z,16.74
2017-09-28T10:45:13.249Z,16.62
2017-09-28T10:47:41.569Z,16.63
2017-09-28T10:50:09.877Z,16.71
2017-09-28T10:52:38.194Z,16.79
2017-09-28T10:55:07.265Z,17.01
2017-09-28T10:57:35.594Z,17.08
2017-09-28T11:00:03.902Z,17.03
2017-09-28T11:02:32.215Z,17.12
2017-09-28T11:05:01.299Z,17.17
2017-09-28T11:07:29.620Z,17.31
2017-09-28T11:09:57.949Z,17.08
2017-09-28T11:12:26.261Z,17.21
2017-09-28T11:14:54.599Z,17.17
2017-09-28T11:17:22.910Z,17.44
2017-09-28T11:19:51.985Z,17.49
2017-09-28T11:22:20.301Z,17.62
2017-09-28T11:24:48.611Z,17.61
2017-09-28T11:27:16.959Z,17.86
2017-09-28T11:29:45.267Z,17.66
2017-09-28T11:32:13.573Z,17.65
2017-09-28T11:34:41.898Z,17.83
2017-09-28T11:37:10.215Z,17.89
2017-09-28T11:39:38.554Z,18.26
2017-09-28T11:42:06.866Z,18.40
2017-09-28T11:44:35.174Z,18.48
2017-09-28T11:47:04.275Z,18.82
2017-09-28T11:49:33.349Z,18.45
2017-09-28T11:52:01.701Z,18.48
2017-09-28T11:54:30.007Z,18.67
2017-09-28T11:56:59.090Z,18.30
2017-09-28T11:59:27.407Z,18.66
2017-09-28T12:01:55.717Z,18.52
2017-09-28T12:04:24.063Z,18.31
2017-09-28T12:06:52.378Z,18.31
2017-09-28T12:09:20.678Z,18.28
2017-09-28T12:11:49.007Z,18.63
2017-09-28T12:14:17.322Z,18.06
2017-09-28T12:16:45.663Z,18.14
2017-09-28T12:19:13.971Z,18.55
2017-09-28T12:21:42.290Z,18.97
2017-09-28T12:24:11.383Z,19.58
2017-09-28T12:26:40.459Z,19.67
2017-09-28T12:29:08.890Z,19.89
2017-09-28T12:31:37.199Z,19.91
2017-09-28T12:34:05.501Z,19.56
2017-09-28T12:36:33.824Z,20.01
2017-09-28T12:39:02.223Z,19.45
2017-09-28T12:41:30.545Z,19.58
2017-09-28T12:43:59.615Z,19.42
2017-09-28T12:46:27.972Z,19.32
2017-09-28T12:48:56.282Z,19.15
2017-09-28T12:51:24.595Z,19.41
2017-09-28T12:53:52.923Z,18.95
2017-09-28T12:56:21.249Z,19.05
2017-09-28T12:58:49.572Z,19.15
2017-09-28T13:01:17.873Z,18.92
2017-09-28T13:03:46.213Z,18.94
2017-09-28T13:06:14.529Z,19.00
2017-09-28T13:08:43.622Z,18.63
2017-09-28T13:11:12.716Z,18.39
2017-09-28T13:13:41.027Z,18.48
2017-09-28T13:16:09.370Z,18.51
2017-09-28T13:18:37.677Z,18.42
2017-09-28T13:21:06.002Z,18.38
2017-09-28T13:23:34.322Z,18.05
2017-09-28T13:26:03.396Z,18.09
2017-09-28T13:28:31.720Z,18.26
2017-09-28T13:31:00.028Z,18.32
2017-09-28T13:33:28.368Z,18.35
2017-09-28T13:35:56.676Z,18.47
2017-09-28T13:38:24.982Z,18.50
2017-09-28T13:40:53.303Z,18.35
2017-09-28T13:43:21.623Z,18.46
2017-09-28T13:45:49.942Z,18.42
2017-09-28T13:48:19.010Z,18.54
2017-09-28T13:50:47.356Z,18.47
2017-09-28T13:53:15.661Z,18.50
2017-09-28T13:55:43.981Z,18.57
2017-09-28T13:58:12.301Z,18.59
2017-09-28T14:00:40.621Z,18.73
2017-09-28T14:03:09.717Z,18.84
2017-09-28T14:05:38.793Z,19.07
2017-09-28T14:08:07.127Z,19.13
2017-09-28T14:10:35.466Z,19.01
2017-09-28T14:13:03.783Z,18.84
2017-09-28T14:15:32.110Z,18.75
2017-09-28T14:18:01.190Z,18.92
2017-09-28T14:20:29.515Z,18.85
2017-09-28T14:22:57.862Z,18.73
2017-09-28T14:25:26.969Z,18.72
2017-09-28T14:27:56.041Z,18.87
2017-09-28T14:30:24.374Z,18.94
2017-09-28T14:32:52.746Z,18.83
2017-09-28T14:35:21.051Z,18.68
2017-09-28T14:37:49.370Z,18.70
2017-09-28T14:40:18.450Z,18.87
2017-09-28T14:42:46.786Z,18.85
2017-09-28T14:45:15.094Z,18.86
2017-09-28T14:47:43.419Z,18.88
2017-09-28T14:50:11.737Z,18.83
2017-09-28T14:52:40.048Z,18.82
2017-09-28T14:55:09.129Z,18.80
2017-09-28T14:57:37.442Z,18.70
2017-09-28T15:00:05.786Z,18.80
2017-09-28T15:02:34.101Z,18.68
2017-09-28T15:05:02.406Z,18.68
2017-09-28T15:07:30.729Z,18.69
2017-09-28T15:09:59.815Z,18.54
2017-09-28T15:12:28.155Z,18.56
2017-09-28T15:14:56.478Z,18.45
2017-09-28T15:17:25.589Z,18.43
2017-09-28T15:19:53.894Z,18.26
2017-09-28T15:22:22.208Z,18.30
2017-09-28T15:24:50.533Z,18.36
2017-09-28T15:27:18.865Z,18.36
2017-09-28T15:29:47.201Z,18.36
2017-09-28T15:32:15.509Z,18.39
2017-09-28T15:34:43.819Z,18.43
2017-09-28T15:37:12.931Z,18.40
2017-09-28T15:39:41.239Z,18.43
2017-09-28T15:42:09.586Z,18.54
2017-09-28T15:44:37.888Z,18.61
2017-09-28T15:47:06.802Z,18.77
2017-09-28T15:49:35.126Z,18.84
2017-09-28T15:52:03.433Z,18.94
2017-09-28T15:54:31.774Z,18.98
2017-09-28T15:57:00.858Z,18.95
2017-09-28T15:59:29.937Z,18.99
2017-09-28T16:01:58.256Z,19.09
2017-09-28T16:04:26.589Z,19.01
2017-09-28T16:06:54.929Z,18.78
2017-09-28T16:09:23.246Z,18.86
2017-09-28T16:11:51.557Z,18.92
2017-09-28T16:14:20.657Z,18.85
2017-09-28T16:16:48.963Z,18.60
2017-09-28T16:19:17.306Z,18.49
2017-09-28T16:21:46.382Z,18.51
2017-09-28T16:24:14.703Z,18.79
2017-09-28T16:26:43.040Z,19.05
2017-09-28T16:29:12.114Z,18.86
2017-09-28T16:31:40.457Z,18.83
2017-09-28T16:34:08.771Z,18.89
2017-09-28T16:36:37.086Z,18.83
2017-09-28T16:39:05.426Z,18.86
2017-09-28T16:41:33.738Z,18.87
2017-09-28T16:44:02.860Z,18.70
2017-09-28T16:46:31.174Z,18.51
2017-09-28T16:48:59.489Z,18.30
2017-09-28T16:51:28.596Z,18.26
2017-09-28T16:53:56.902Z,18.19
2017-09-28T16:56:25.238Z,18.14
2017-09-28T16:58:54.322Z,18.13
2017-09-28T17:01:23.403Z,18.12
2017-09-28T17:03:51.723Z,18.06
2017-09-28T17:06:20.031Z,18.02
2017-09-28T17:08:48.377Z,18.00
2017-09-28T17:13:51.358Z,17.99
2017-09-28T17:16:20.436Z,17.95
2017-09-28T17:18:48.739Z,17.93
2017-09-28T17:21:17.075Z,17.94
2017-09-28T17:23:45.390Z,17.94
2017-09-28T17:26:14.497Z,17.90
2017-09-28T17:28:42.801Z,17.86
2017-09-28T17:31:11.113Z,17.82
2017-09-28T17:33:39.432Z,17.77
2017-09-28T17:36:07.741Z,17.75
2017-09-28T17:38:36.086Z,17.69
2017-09-28T17:41:04.478Z,17.64
2017-09-28T17:43:32.791Z,17.67
2017-09-28T17:46:01.106Z,17.68
2017-09-28T17:48:30.178Z,17.64
2017-09-28T17:50:58.514Z,17.64
2017-09-28T17:53:26.824Z,17.64
2017-09-28T17:55:55.139Z,17.59
2017-09-28T17:58:23.454Z,17.59
2017-09-28T18:00:51.774Z,17.59
2017-09-28T18:03:20.910Z,17.58
2017-09-28T18:05:49.226Z,17.55
2017-09-28T18:08:17.542Z,17.57
2017-09-28T18:10:46.634Z,17.59
2017-09-28T18:13:15.718Z,17.50
2017-09-28T18:15:44.834Z,17.43
2017-09-28T18:18:13.159Z,17.40
2017-09-28T18:20:42.286Z,17.36
2017-09-28T18:23:11.377Z,17.30
2017-09-28T18:25:39.690Z,17.27
2017-09-28T18:28:08.044Z,17.25
2017-09-28T18:30:37.130Z,17.22
2017-09-28T18:33:06.211Z,17.21
2017-09-28T18:35:34.546Z,17.22
2017-09-28T18:38:02.862Z,17.19
2017-09-28T18:40:31.207Z,17.20
2017-09-28T18:42:59.521Z,17.23
2017-09-28T18:45:27.874Z,17.22
2017-09-28T18:47:57.698Z,17.23
2017-09-28T18:50:26.014Z,17.22
2017-09-28T18:52:55.426Z,17.21
2017-09-28T18:55:24.501Z,17.26
2017-09-28T18:57:52.810Z,17.26
2017-09-28T19:00:21.155Z,17.18
2017-09-28T19:02:49.474Z,17.16
2017-09-28T19:05:17.821Z,17.12
2017-09-28T19:07:46.902Z,17.12
2017-09-28T19:10:15.222Z,17.12
2017-09-28T19:12:43.554Z,17.15
2017-09-28T19:15:11.874Z,17.14
2017-09-28T19:17:40.218Z,17.12
2017-09-28T19:20:09.307Z,17.17
2017-09-28T19:22:37.656Z,17.13
2017-09-28T19:25:05.970Z,17.17
2017-09-28T19:27:35.057Z,17.22
2017-09-28T19:30:03.414Z,17.16
2017-09-28T19:32:31.745Z,17.17
2017-09-28T19:35:00.092Z,17.23
2017-09-28T19:37:28.473Z,17.13
2017-09-28T19:39:56.786Z,17.09
2017-09-28T19:42:25.134Z,17.07
2017-09-28T19:44:54.257Z,17.04
2017-09-28T19:47:22.570Z,17.04
2017-09-28T19:49:50.885Z,17.03
2017-09-28T19:52:19.978Z,17.05
2017-09-28T19:54:48.320Z,17.03
2017-09-28T19:57:16.639Z,17.04
2017-09-28T19:59:45.720Z,17.00
2017-09-28T20:02:14.045Z,17.03
2017-09-28T20:04:42.363Z,17.07
2017-09-28T20:07:10.710Z,17.01
2017-09-28T20:09:39.026Z,17.01
2017-09-28T20:12:07.337Z,17.01
2017-09-28T20:14:35.663Z,17.06
2017-09-28T20:17:03.979Z,17.05
2017-09-28T20:19:33.094Z,16.96
2017-09-28T20:22:01.405Z,16.97
2017-09-28T20:24:29.722Z,16.95
2017-09-28T20:26:58.838Z,16.90
2017-09-28T20:29:27.155Z,16.87
2017-09-28T20:31:55.507Z,16.88
2017-09-28T20:34:23.822Z,16.92
2017-09-28T20:36:52.155Z,16.89
2017-09-28T20:39:20.487Z,16.92
2017-09-28T20:41:48.796Z,16.87
2017-09-28T20:44:17.895Z,16.88
2017-09-28T20:46:46.213Z,16.91
2017-09-28T20:49:14.545Z,16.86
2017-09-28T20:51:42.875Z,16.87
2017-09-28T20:54:11.177Z,16.86
2017-09-28T20:56:39.543Z,16.79
2017-09-28T20:59:07.849Z,16.71
2017-09-28T21:01:36.936Z,16.69
2017-09-28T21:04:05.259Z,16.66
2017-09-28T21:06:33.570Z,16.61
2017-09-28T21:09:01.926Z,16.56
2017-09-28T21:11:30.246Z,16.53
2017-09-28T21:13:58.554Z,16.52
2017-09-28T21:16:26.877Z,16.51
2017-09-28T21:18:55.183Z,16.50
2017-09-28T21:21:24.298Z,16.45
2017-09-28T21:23:52.606Z,16.44
2017-09-28T21:26:20.913Z,16.39
2017-09-28T21:28:49.234Z,16.41
2017-09-28T21:31:17.571Z,16.39
2017-09-28T21:33:45.916Z,16.38
2017-09-28T21:36:14.266Z,16.37
2017-09-28T21:38:42.569Z,16.36
2017-09-28T21:41:10.893Z,16.28
2017-09-28T21:43:39.209Z,16.27
2017-09-28T21:46:07.565Z,16.26
2017-09-28T21:48:36.643Z,16.24
2017-09-28T21:51:04.955Z,16.24
2017-09-28T21:53:33.281Z,16.23
2017-09-28T21:56:01.594Z,16.18
2017-09-28T21:58:30.710Z,16.18
2017-09-28T22:00:59.013Z,16.19
2017-09-28T22:03:27.342Z,16.12
2017-09-28T22:05:56.427Z,16.09
2017-09-28T22:08:25.556Z,16.06
2017-09-28T22:10:53.904Z,16.03
2017-09-28T22:13:22.987Z,16.01
2017-09-28T22:15:51.302Z,15.99
2017-09-28T22:18:19.637Z,15.99
2017-09-28T22:20:48.011Z,15.96
2017-09-28T22:23:16.374Z,15.94
2017-09-28T22:25:44.699Z,15.90
2017-09-28T22:28:13.789Z,15.85
2017-09-28T22:30:42.903Z,15.82
2017-09-28T22:33:11.209Z,15.80
2017-09-28T22:35:39.529Z,15.75
2017-09-28T22:38:08.633Z,15.68
2017-09-28T22:40:37.715Z,15.65
2017-09-28T22:43:06.815Z,15.62
2017-09-28T22:45:35.918Z,15.57
2017-09-28T22:48:05.037Z,15.55
2017-09-28T22:50:33.351Z,15.53
2017-09-28T22:53:01.671Z,15.52
2017-09-28T22:55:30.753Z,15.52
2017-09-28T22:57:59.838Z,15.46
2017-09-28T23:00:28.201Z,15.43
2017-09-28T23:02:56.513Z,15.38
2017-09-28T23:05:24.852Z,15.31
2017-09-28T23:07:53.942Z,15.25
2017-09-28T23:10:22.273Z,15.18
2017-09-28T23:12:51.398Z,15.11
2017-09-28T23:15:19.707Z,15.09
2017-09-28T23:17:48.026Z,15.01
2017-09-28T23:20:17.110Z,14.98
2017-09-28T23:22:46.212Z,14.95
2017-09-28T23:25:15.333Z,14.94
2017-09-28T23:27:43.721Z,14.94
2017-09-28T23:30:12.048Z,14.89
2017-09-28T23:32:40.365Z,14.87
2017-09-28T23:35:08.674Z,14.83
2017-09-28T23:37:37.020Z,14.76
2017-09-28T23:40:05.342Z,14.71
2017-09-28T23:42:33.650Z,14.67
2017-09-28T23:45:02.736Z,14.61
2017-09-28T23:47:31.045Z,14.54
2017-09-28T23:49:59.390Z,14.53
2017-09-28T23:52:27.703Z,14.50
2017-09-28T23:54:56.018Z,14.48
2017-09-28T23:57:24.374Z,14.42
2017-09-28T23:59:52.697Z,14.34
